createdAt,value
2023-02-17T00:05:44.713Z,82
2023-02-17T00:11:19.125Z,69
2023-02-17T00:16:56.303Z,73
2023-02-17T00:22:34.176Z,56
2023-02-17T00:28:12.395Z,70
2023-02-17T00:33:49.067Z,42
2023-02-17T00:39:26.115Z,22
2023-02-17T00:45:02.678Z,32
2023-02-17T00:50:38.790Z,44
2023-02-17T00:56:15.813Z,75
2023-02-17T01:01:55.866Z,46
2023-02-17T01:08:14.144Z,66
2023-02-17T01:13:47.377Z,48
2023-02-17T01:20:41.459Z,36
2023-02-17T01:26:19.066Z,38
2023-02-17T01:31:55.605Z,42
2023-02-17T01:37:32.150Z,69
2023-02-17T01:43:28.326Z,52
2023-02-17T01:49:04.674Z,34
2023-02-17T01:56:20.314Z,30
2023-02-17T02:01:57.396Z,44
2023-02-17T02:07:54.907Z,68
2023-02-17T02:13:30.457Z,56
2023-02-17T02:19:06.183Z,65
2023-02-17T02:25:05.839Z,69
2023-02-17T02:30:50.980Z,44
2023-02-17T02:36:33.664Z,44
2023-02-17T02:42:15.144Z,46
2023-02-17T02:47:50.894Z,38
2023-02-17T02:53:51.393Z,36
2023-02-17T02:59:26.634Z,36
2023-02-17T03:05:01.689Z,32
2023-02-17T03:10:36.947Z,48
2023-02-17T03:16:17.683Z,32
2023-02-17T03:21:53.080Z,24
2023-02-17T03:27:28.454Z,32
2023-02-17T03:33:03.926Z,36
2023-02-17T03:38:38.692Z,42
2023-02-17T03:44:13.928Z,22
2023-02-17T03:49:54.150Z,54
2023-02-17T03:55:29.081Z,18
2023-02-17T04:01:33.249Z,38
2023-02-17T04:07:31.114Z,54
2023-02-17T04:13:07.199Z,59
2023-02-17T04:18:44.950Z,30
2023-02-17T04:24:20.912Z,63
2023-02-17T04:29:56.381Z,26
2023-02-17T04:35:33.612Z,44
2023-02-17T04:41:10.287Z,56
2023-02-17T04:46:46.796Z,60
2023-02-17T04:52:22.769Z,42
2023-02-17T04:58:14.802Z,56
2023-02-17T05:03:53.617Z,38
2023-02-17T05:09:31.841Z,42
2023-02-17T05:15:26.145Z,57
2023-02-17T05:21:03.240Z,30
2023-02-17T05:26:59.152Z,45
2023-02-17T05:32:34.607Z,26
2023-02-17T05:38:21.345Z,32
2023-02-17T05:43:56.524Z,30
2023-02-17T05:49:36.113Z,59
2023-02-17T05:55:11.615Z,40
2023-02-17T06:00:46.479Z,26
2023-02-17T06:06:43.419Z,51
2023-02-17T06:12:25.420Z,46
2023-02-17T06:18:01.906Z,65
2023-02-17T06:23:58.130Z,22
2023-02-17T06:30:04.902Z,24
2023-02-17T06:35:56.423Z,58
2023-02-17T06:41:55.719Z,28
2023-02-17T06:47:52.442Z,37
2023-02-17T06:53:33.032Z,46
2023-02-17T06:59:17.125Z,44
2023-02-17T07:04:58.321Z,40
2023-02-17T07:10:34.583Z,68
2023-02-17T07:16:12.097Z,56
2023-02-17T07:21:57.798Z,73
2023-02-17T07:27:33.127Z,44
2023-02-17T07:33:08.270Z,38
2023-02-17T07:38:45.022Z,60
2023-02-17T07:44:37.240Z,48
2023-02-17T07:51:10.333Z,26
2023-02-17T07:56:50.791Z,88
2023-02-17T08:02:35.704Z,79
2023-02-17T08:08:42.137Z,100
2023-02-17T08:14:18.735Z,88
2023-02-17T08:20:10.282Z,93
2023-02-17T08:25:55.245Z,101
2023-02-17T08:31:31.766Z,61
2023-02-17T08:37:16.609Z,48
2023-02-17T08:42:53.425Z,50
2023-02-17T08:48:29.461Z,65
2023-02-17T08:54:05.212Z,46
2023-02-17T08:59:40.680Z,48
2023-02-17T09:05:15.998Z,60
2023-02-17T09:10:51.351Z,74
2023-02-17T09:16:41.338Z,56
2023-02-17T09:22:36.855Z,52
2023-02-17T09:28:14.114Z,60
2023-02-17T09:33:51.145Z,85
2023-02-17T09:39:32.980Z,88
2023-02-17T09:45:14.973Z,38
2023-02-17T09:50:54.136Z,44
2023-02-17T09:56:36.756Z,60
2023-02-17T10:02:12.250Z,40
2023-02-17T10:07:51.771Z,36
2023-02-17T10:13:33.335Z,36
2023-02-17T10:19:08.761Z,34
2023-02-17T10:24:44.849Z,32
2023-02-17T10:30:26.684Z,48
2023-02-17T10:36:10.733Z,22
2023-02-17T10:41:53.079Z,24
2023-02-17T10:47:28.690Z,32
2023-02-17T10:53:07.122Z,50
2023-02-17T10:58:53.577Z,22
2023-02-17T11:04:30.213Z,30
2023-02-17T11:10:38.407Z,42
2023-02-17T11:16:16.165Z,28
2023-02-17T11:21:52.337Z,30
2023-02-17T11:27:29.578Z,20
2023-02-17T11:33:16.557Z,32
2023-02-17T11:38:52.961Z,39
2023-02-17T11:44:31.343Z,30
2023-02-17T11:50:10.952Z,32
2023-02-17T11:56:09.825Z,18
2023-02-17T12:01:50.869Z,14
2023-02-17T12:07:26.492Z,16
2023-02-17T12:13:08.729Z,20
2023-02-17T12:18:49.563Z,20
2023-02-17T12:24:29.421Z,18
2023-02-17T12:30:05.010Z,20
2023-02-17T12:35:45.549Z,20
2023-02-17T12:41:24.159Z,18
2023-02-17T12:46:59.524Z,34
2023-02-17T12:52:42.951Z,18
2023-02-17T12:58:32.340Z,16
2023-02-17T13:04:17.522Z,31
2023-02-17T13:09:58.655Z,18
2023-02-17T13:15:47.086Z,18
2023-02-17T13:21:26.179Z,24
2023-02-17T13:27:21.870Z,18
2023-02-17T13:32:59.384Z,24
2023-02-17T13:38:57.881Z,14
2023-02-17T13:44:42.131Z,24
2023-02-17T13:50:28.058Z,24
2023-02-17T13:56:10.455Z,18
2023-02-17T14:01:52.691Z,12
2023-02-17T14:07:49.972Z,16
2023-02-17T14:13:27.041Z,18
2023-02-17T14:19:11.267Z,14
2023-02-17T14:25:55.884Z,6
2023-02-17T14:31:44.967Z,10
2023-02-17T14:37:34.315Z,12
2023-02-17T14:43:09.532Z,11
2023-02-17T14:48:44.858Z,12
2023-02-17T14:54:20.012Z,12
2023-02-17T14:59:55.597Z,40
2023-02-17T15:05:52.549Z,17
2023-02-17T15:11:26.717Z,12
2023-02-17T15:17:19.331Z,18
2023-02-17T15:23:04.038Z,8
2023-02-17T15:29:01.335Z,6
2023-02-17T15:35:01.496Z,12
2023-02-17T15:40:45.502Z,14
2023-02-17T15:46:58.038Z,14
2023-02-17T15:52:33.409Z,6
2023-02-17T15:58:19.520Z,30
2023-02-17T16:03:57.244Z,16
2023-02-17T16:09:33.790Z,8
2023-02-17T16:15:29.879Z,14
2023-02-17T16:21:09.264Z,12
2023-02-17T16:27:13.449Z,10
2023-02-17T16:32:49.182Z,8
2023-02-17T16:38:27.844Z,16
2023-02-17T16:44:16.851Z,10
2023-02-17T16:49:58.535Z,8
2023-02-17T16:55:44.493Z,22
2023-02-17T17:01:46.129Z,12
2023-02-17T17:07:43.477Z,16
2023-02-17T17:13:37.863Z,14
2023-02-17T17:19:13.100Z,10
2023-02-17T17:24:50.720Z,6
2023-02-17T17:30:30.973Z,12
2023-02-17T17:36:09.185Z,12
2023-02-17T17:41:48.063Z,8
2023-02-17T17:47:48.405Z,18
2023-02-17T17:53:23.585Z,12
2023-02-17T17:59:01.708Z,8
2023-02-17T18:04:38.779Z,18
2023-02-17T18:10:15.323Z,16
2023-02-17T18:15:50.684Z,8
2023-02-17T18:21:25.776Z,8
2023-02-17T18:27:01.220Z,10
2023-02-17T18:32:36.548Z,18
2023-02-17T18:38:12.688Z,30
2023-02-17T18:43:50.584Z,14
2023-02-17T18:49:25.683Z,16
2023-02-17T18:55:00.724Z,12
2023-02-17T19:00:37.410Z,22
2023-02-17T19:06:22.408Z,29
2023-02-17T19:12:05.929Z,22
2023-02-17T19:18:03.116Z,29
2023-02-17T19:23:38.452Z,38
2023-02-17T19:29:13.647Z,28
2023-02-17T19:34:48.958Z,22
2023-02-17T19:40:25.050Z,28
2023-02-17T19:45:59.995Z,20
2023-02-17T19:51:36.208Z,22
2023-02-17T19:57:11.114Z,42
2023-02-17T20:02:47.310Z,26
2023-02-17T20:08:44.978Z,56
2023-02-17T20:14:17.723Z,60
2023-02-17T20:19:52.669Z,56
2023-02-17T20:25:28.174Z,56
2023-02-17T20:31:05.740Z,28
2023-02-17T20:36:41.544Z,46
2023-02-17T20:42:16.860Z,30
2023-02-17T20:47:52.454Z,48
2023-02-17T20:53:28.458Z,62
2023-02-17T20:59:03.797Z,32
2023-02-17T21:04:38.948Z,50
2023-02-17T21:10:14.078Z,52
2023-02-17T21:15:50.607Z,54
2023-02-17T21:21:25.670Z,44
2023-02-17T21:27:01.848Z,48
2023-02-17T21:32:51.736Z,18
2023-02-17T21:38:27.102Z,32
2023-02-17T21:44:02.397Z,48
2023-02-17T21:49:38.792Z,62
2023-02-17T21:55:14.045Z,58
2023-02-17T22:00:49.599Z,50
2023-02-17T22:06:46.551Z,92
2023-02-17T22:12:22.435Z,48
2023-02-17T22:17:57.840Z,74
2023-02-17T22:23:35.770Z,30
2023-02-17T22:29:10.653Z,38
2023-02-17T22:34:45.979Z,16
2023-02-17T22:40:21.148Z,38
2023-02-17T22:45:56.971Z,46
2023-02-17T22:51:33.230Z,45
2023-02-17T22:57:08.874Z,20
2023-02-17T23:02:50.453Z,74
2023-02-17T23:08:47.298Z,79
2023-02-17T23:14:26.263Z,110
2023-02-17T23:20:01.510Z,60
2023-02-17T23:25:36.635Z,94
2023-02-17T23:31:18.897Z,67
2023-02-17T23:36:54.965Z,43
2023-02-17T23:42:30.012Z,76
2023-02-17T23:48:06.040Z,67
2023-02-17T23:53:42.504Z,63
2023-02-17T23:59:17.676Z,38
